Time;durP1;ratioP1;P1;durP2;ratioP2;P2;SDS_P1;SDS_P2;PMS_P1;PMS_P2;Temp;Humidity;BMP_temperature;BMP_pressure;BME280_temperature;BME280_humidity;BME280_pressure;Samples;Min_cycle;Max_cycle;Signal;HPM_P1;HPM_P2
2022/03/23 00:02:08;;;;;;;21.90;11.00;;;;;;;38.66;45.18;100954.53;4766909;30;20456;-71
2022/03/23 00:04:33;;;;;;;22.40;10.90;;;;;;;38.60;44.98;100947.63;4765882;30;20844;-72
2022/03/23 00:06:59;;;;;;;20.33;9.43;;;;;;;38.71;44.73;100937.34;4763764;30;20461;-72
2022/03/23 00:09:27;;;;;;;32.77;8.97;;;;;;;38.40;45.33;100935.38;4748302;30;20191;-72
2022/03/23 00:11:54;;;;;;;52.63;11.10;;;;;;;38.46;45.35;100927.94;4748873;30;20418;-73
2022/03/23 00:14:20;;;;;;;23.70;9.90;;;;;;;38.40;45.59;100924.53;4734023;30;20411;-73
2022/03/23 00:16:45;;;;;;;32.07;11.10;;;;;;;38.50;45.84;100918.09;4748663;30;20434;-71
2022/03/23 00:19:12;;;;;;;39.07;14.87;;;;;;;38.58;45.50;100913.81;4735305;30;20835;-71
2022/03/23 00:21:38;;;;;;;33.17;11.83;;;;;;;38.57;45.94;100914.94;4733927;30;20429;-71
2022/03/23 00:24:05;;;;;;;23.60;10.30;;;;;;;38.69;45.62;100915.97;4748717;30;20552;-71
2022/03/23 00:26:31;;;;;;;32.00;10.37;;;;;;;38.70;45.52;100922.19;4748718;30;20872;-71
2022/03/23 00:28:58;;;;;;;32.53;9.90;;;;;;;38.63;45.00;100903.66;4748604;30;20427;-71
2022/03/23 00:31:24;;;;;;;26.33;13.53;;;;;;;38.73;45.06;100902.59;4735162;30;20442;-70
2022/03/23 00:33:50;;;;;;;27.60;11.00;;;;;;;38.65;45.02;100903.34;4733588;30;20489;-70
2022/03/23 00:36:18;;;;;;;32.97;10.93;;;;;;;38.79;44.90;100889.72;4748465;30;20430;-70
2022/03/23 00:38:44;;;;;;;27.57;11.97;;;;;;;38.68;45.47;100898.09;4748266;30;20406;-71
2022/03/23 00:41:11;;;;;;;21.30;9.20;;;;;;;38.59;45.62;100897.25;4748423;30;20472;-71
2022/03/23 00:43:37;;;;;;;23.87;12.23;;;;;;;38.66;45.63;100889.47;4733590;30;21142;-72
2022/03/23 00:46:04;;;;;;;22.70;9.43;;;;;;;38.82;45.64;100889.13;4734628;30;20441;-73
2022/03/23 00:48:30;;;;;;;26.93;11.80;;;;;;;38.74;46.09;100887.16;4763040;30;20435;-72
2022/03/23 00:50:56;;;;;;;27.60;10.77;;;;;;;38.65;46.46;100882.44;4748087;30;20434;-71
2022/03/23 00:53:22;;;;;;;34.33;11.47;;;;;;;38.68;46.06;100873.72;4719246;30;20998;-70
2022/03/23 00:55:48;;;;;;;16.83;9.90;;;;;;;38.46;46.40;100879.16;4748199;30;20418;-70
2022/03/23 00:58:14;;;;;;;28.27;12.90;;;;;;;38.51;46.03;100867.38;4733348;30;20490;-71
2022/03/23 01:00:41;;;;;;;25.87;8.80;;;;;;;38.35;46.16;100867.75;4734605;30;20422;-72
2022/03/23 01:03:07;;;;;;;35.10;13.13;;;;;;;38.30;46.27;100859.75;4762434;30;20486;-70
2022/03/23 01:05:33;;;;;;;29.07;10.83;;;;;;;38.42;45.87;100859.19;4747841;30;20525;-72
2022/03/23 01:07:59;;;;;;;31.37;12.00;;;;;;;38.04;46.78;100866.88;4747928;30;20521;-72
2022/03/23 01:10:25;;;;;;;30.53;10.20;;;;;;;38.15;46.19;100858.19;4734741;30;20464;-72
2022/03/23 01:12:53;;;;;;;30.40;10.63;;;;;;;38.16;46.06;100864.41;4734332;30;20455;-71
2022/03/23 01:15:20;;;;;;;27.80;9.27;;;;;;;38.06;46.01;100849.22;4733124;30;20492;-70
2022/03/23 01:17:46;;;;;;;34.57;13.60;;;;;;;38.17;46.39;100853.25;4733117;30;20444;-73
2022/03/23 01:20:14;;;;;;;48.23;10.60;;;;;;;38.23;46.23;100861.28;4746979;30;20473;-71
2022/03/23 01:22:43;;;;;;;34.23;12.30;;;;;;;38.37;45.50;100860.13;4732903;30;20941;-72
2022/03/23 01:25:10;;;;;;;32.67;11.97;;;;;;;38.32;45.70;100859.47;4747443;30;20450;-72
2022/03/23 01:27:38;;;;;;;28.37;9.07;;;;;;;38.14;45.73;100848.47;4747709;30;20491;-72
2022/03/23 01:30:06;;;;;;;26.10;10.10;;;;;;;38.15;46.21;100844.66;4762416;30;20476;-71
2022/03/23 01:32:33;;;;;;;29.17;10.90;;;;;;;38.35;45.99;100843.38;4747466;30;20442;-71
2022/03/23 01:35:00;;;;;;;29.93;10.27;;;;;;;38.30;45.46;100846.19;4747392;30;20461;-71
2022/03/23 01:37:26;;;;;;;50.50;10.80;;;;;;;38.14;45.61;100840.34;4732920;30;20949;-72
2022/03/23 01:39:52;;;;;;;24.07;9.10;;;;;;;38.23;45.46;100836.88;4747574;30;20426;-71
2022/03/23 01:42:19;;;;;;;28.57;11.10;;;;;;;38.17;45.40;100839.72;4762217;30;20814;-71
2022/03/23 01:44:45;;;;;;;32.07;12.23;;;;;;;38.14;45.53;100832.22;4733999;30;20457;-71
2022/03/23 01:47:13;;;;;;;28.93;10.03;;;;;;;38.13;45.56;100827.91;4733958;30;20418;-71
2022/03/23 01:49:42;;;;;;;33.80;10.27;;;;;;;38.04;45.67;100829.75;4747196;30;20457;-71
2022/03/23 01:52:11;;;;;;;21.20;10.20;;;;;;;38.04;45.44;100828.94;4734785;30;20542;-71
2022/03/23 01:54:39;;;;;;;27.73;9.80;;;;;;;38.16;45.76;100816.44;4733911;30;20572;-73
2022/03/23 01:57:07;;;;;;;27.00;11.50;;;;;;;38.11;45.62;100818.47;4747123;30;20462;-72
2022/03/23 01:59:34;;;;;;;26.23;10.10;;;;;;;38.06;45.76;100810.47;4718157;30;20434;-70
2022/03/23 02:02:01;;;;;;;21.27;8.97;;;;;;;38.01;45.45;100808.72;4732817;30;20607;-70
2022/03/23 02:04:27;;;;;;;21.90;8.27;;;;;;;38.12;45.22;100798.41;4732162;30;20496;-71
2022/03/23 02:06:53;;;;;;;25.57;12.77;;;;;;;38.29;45.02;100792.34;4747786;30;20957;-73
2022/03/23 02:09:20;;;;;;;27.63;12.80;;;;;;;38.24;45.56;100793.22;4763624;30;20601;-73
2022/03/23 02:11:47;;;;;;;22.93;10.10;;;;;;;38.25;45.52;100785.94;4750135;30;20214;-71
2022/03/23 02:14:14;;;;;;;22.60;9.80;;;;;;;37.89;46.28;100784.09;4751340;30;20402;-71
2022/03/23 02:16:45;;;;;;;17.97;9.80;;;;;;;37.92;46.72;100783.47;4749886;30;20432;-72
2022/03/23 02:19:12;;;;;;;25.87;10.37;;;;;;;38.05;46.41;100779.88;4765125;30;20430;-71
2022/03/23 02:21:42;;;;;;;30.40;10.50;;;;;;;38.15;46.18;100771.50;4751179;30;20416;-72
2022/03/23 02:24:09;;;;;;;30.07;9.07;;;;;;;37.89;46.80;100770.56;4764692;30;21012;-72
2022/03/23 02:26:37;;;;;;;21.50;9.77;;;;;;;38.01;46.12;100770.00;4749913;30;20429;-70
2022/03/23 02:29:07;;;;;;;22.90;9.40;;;;;;;38.09;46.23;100764.63;4751311;30;20406;-71
2022/03/23 02:31:35;;;;;;;22.20;8.50;;;;;;;38.10;46.47;100762.72;4750421;30;20461;-73
2022/03/23 02:34:02;;;;;;;25.73;10.83;;;;;;;38.12;46.45;100760.47;4753362;30;20432;-73
2022/03/23 02:36:29;;;;;;;24.33;9.00;;;;;;;38.19;46.71;100766.28;4768140;30;20985;-72
2022/03/23 02:38:55;;;;;;;26.70;10.73;;;;;;;38.10;46.54;100768.94;4753547;30;20816;-71
2022/03/23 02:41:21;;;;;;;26.83;9.83;;;;;;;37.98;46.22;100765.19;4753565;30;20428;-72
2022/03/23 02:43:47;;;;;;;23.77;10.20;;;;;;;37.77;46.57;100772.97;4754486;30;20210;-71
2022/03/23 02:46:20;;;;;;;18.60;9.57;;;;;;;38.13;46.16;100776.44;4753168;30;20429;-71
2022/03/23 02:48:47;;;;;;;35.83;11.97;;;;;;;37.89;46.55;100787.59;4753347;30;20263;-71
2022/03/23 02:51:14;;;;;;;16.87;9.33;;;;;;;37.86;46.39;100771.94;4767965;30;20948;-72
2022/03/23 03:02:22;;;;;;;21.03;8.43;;;;;;;37.92;45.82;100762.59;4754333;30;20804;-71
2022/03/23 03:04:49;;;;;;;28.00;9.80;;;;;;;37.83;46.00;100759.03;4752725;30;20651;-71
2022/03/23 03:07:15;;;;;;;24.63;10.60;;;;;;;38.11;46.04;100759.69;4752860;30;20441;-71
2022/03/23 03:09:41;;;;;;;33.53;11.30;;;;;;;38.00;46.05;100765.66;4723780;30;20440;-71
2022/03/23 03:12:09;;;;;;;25.90;9.03;;;;;;;38.01;45.61;100759.97;4738198;30;21034;-71
2022/03/23 03:14:35;;;;;;;30.60;9.93;;;;;;;37.96;46.27;100751.97;4738229;30;20531;-71
2022/03/23 03:17:01;;;;;;;23.50;8.50;;;;;;;37.95;45.89;100755.78;4753797;30;20452;-72
2022/03/23 03:19:27;;;;;;;26.73;8.50;;;;;;;37.85;46.53;100745.19;4752402;30;20934;-72
2022/03/23 03:21:54;;;;;;;42.40;9.20;;;;;;;37.91;46.59;100741.25;4767499;30;20856;-70
2022/03/23 03:24:20;;;;;;;28.23;12.30;;;;;;;38.05;46.12;100744.66;4752588;30;20984;-72
2022/03/23 03:26:47;;;;;;;30.40;15.07;;;;;;;38.15;46.31;100743.63;4752591;30;20432;-72
2022/03/23 03:29:13;;;;;;;19.10;10.20;;;;;;;38.27;46.60;100740.38;4752467;30;20793;-71
2022/03/23 03:31:39;;;;;;;26.40;10.70;;;;;;;38.01;46.37;100746.41;4767295;30;21086;-71
2022/03/23 03:34:05;;;;;;;18.20;9.87;;;;;;;37.96;46.84;100743.03;4767289;30;20429;-71
2022/03/23 03:36:31;;;;;;;31.37;10.23;;;;;;;37.71;46.75;100745.22;4752670;30;20804;-71
2022/03/23 03:38:57;;;;;;;27.47;11.07;;;;;;;37.98;46.49;100749.72;4752406;30;20329;-71
2022/03/23 03:41:23;;;;;;;20.23;10.20;;;;;;;38.13;45.68;100754.78;4753525;30;20850;-71
2022/03/23 03:43:49;;;;;;;34.63;12.73;;;;;;;38.21;46.04;100755.13;4751494;30;20571;-72
2022/03/23 03:46:15;;;;;;;30.27;11.10;;;;;;;38.30;45.50;100750.56;4752237;30;20830;-72
2022/03/23 03:48:41;;;;;;;26.87;11.40;;;;;;;38.23;45.87;100758.31;4767159;30;20433;-72
2022/03/23 03:51:08;;;;;;;21.17;9.50;;;;;;;37.98;46.62;100765.19;4752160;30;20483;-72
2022/03/23 03:53:35;;;;;;;29.43;10.13;;;;;;;37.97;45.80;100752.75;4753001;30;20936;-73
2022/03/23 03:56:02;;;;;;;24.57;11.27;;;;;;;38.17;45.70;100757.66;4752148;30;20432;-73
2022/03/23 03:58:28;;;;;;;33.20;10.40;;;;;;;38.00;45.95;100752.13;4752040;30;20862;-72
2022/03/23 04:00:54;;;;;;;26.93;9.60;;;;;;;38.20;45.74;100764.38;4766712;30;20489;-72
2022/03/23 04:03:20;;;;;;;23.43;11.00;;;;;;;38.15;46.24;100762.59;4766438;30;20493;-73
2022/03/23 04:05:46;;;;;;;24.57;10.93;;;;;;;38.22;45.08;100764.84;4766754;30;20516;-70
2022/03/23 04:08:12;;;;;;;33.73;14.60;;;;;;;38.06;45.49;100767.13;4753055;30;20448;-70
2022/03/23 04:10:38;;;;;;;28.97;12.67;;;;;;;38.07;45.71;100763.34;4752775;30;20936;-72
2022/03/23 04:13:08;;;;;;;39.73;9.87;;;;;;;37.92;45.49;100765.31;4753618;30;20417;-71
2022/03/23 04:15:35;;;;;;;30.47;11.60;;;;;;;38.09;45.05;100759.22;4766572;30;21020;-71
2022/03/23 04:18:02;;;;;;;25.57;9.33;;;;;;;38.24;45.13;100760.72;4766623;30;20421;-71
2022/03/23 04:20:29;;;;;;;35.03;12.67;;;;;;;38.42;44.88;100769.75;4766497;30;20431;-73
2022/03/23 04:22:55;;;;;;;28.57;10.13;;;;;;;38.58;44.70;100767.44;4751553;30;20520;-72
2022/03/23 04:25:22;;;;;;;25.40;9.80;;;;;;;38.59;44.65;100769.84;4766415;30;20793;-73
2022/03/23 04:27:50;;;;;;;23.80;9.73;;;;;;;38.60;44.50;100770.63;4751503;30;20512;-73
2022/03/23 04:30:18;;;;;;;20.97;9.93;;;;;;;38.24;44.62;100770.75;4752623;30;20953;-73
2022/03/23 04:32:50;;;;;;;27.33;9.93;;;;;;;38.37;44.57;100778.06;4751377;30;20440;-71
2022/03/23 04:35:18;;;;;;;35.13;10.87;;;;;;;38.31;44.90;100771.16;4736808;30;20439;-71
2022/03/23 04:37:45;;;;;;;20.03;10.00;;;;;;;38.15;44.79;100779.63;4751457;30;20433;-71
2022/03/23 04:40:14;;;;;;;21.70;9.50;;;;;;;38.08;45.25;100782.00;4751306;30;20920;-71
2022/03/23 04:42:41;;;;;;;21.60;11.27;;;;;;;38.24;45.16;100781.59;4765929;30;20406;-71
2022/03/23 04:45:08;;;;;;;22.63;12.17;;;;;;;38.06;45.45;100781.50;4765980;30;20540;-71
2022/03/23 04:47:35;;;;;;;31.07;10.57;;;;;;;38.23;45.17;100777.28;4766021;30;20502;-71
2022/03/23 04:50:02;;;;;;;29.90;10.00;;;;;;;38.24;44.79;100776.97;4766083;30;20425;-71
2022/03/23 04:52:30;;;;;;;31.77;10.60;;;;;;;38.21;45.40;100779.50;4766009;30;20425;-71
2022/03/23 04:54:56;;;;;;;22.70;10.77;;;;;;;38.32;45.22;100789.00;4766047;30;20937;-71
2022/03/23 04:57:28;;;;;;;43.57;12.87;;;;;;;38.13;45.38;100779.16;4765718;30;20524;-71
2022/03/23 04:59:58;;;;;;;30.10;11.67;;;;;;;38.14;45.31;100791.59;4752293;30;20484;-71
2022/03/23 05:02:26;;;;;;;27.23;12.17;;;;;;;38.20;45.19;100791.47;4752330;30;20443;-71
2022/03/23 05:04:52;;;;;;;24.30;11.97;;;;;;;38.30;45.37;100800.13;4765350;30;20497;-71
2022/03/23 05:07:18;;;;;;;28.20;8.83;;;;;;;38.34;44.96;100793.00;4765822;30;20424;-71
2022/03/23 05:09:44;;;;;;;41.43;10.77;;;;;;;38.38;44.68;100796.69;4750860;30;20871;-70
2022/03/23 05:12:10;;;;;;;23.70;9.97;;;;;;;38.26;45.01;100796.47;4765630;30;20933;-71
2022/03/23 05:14:36;;;;;;;29.53;11.30;;;;;;;38.26;45.27;100801.88;4764536;30;20278;-71
2022/03/23 05:17:04;;;;;;;24.03;9.50;;;;;;;38.11;46.03;100807.66;4750182;30;20464;-72
2022/03/23 05:19:31;;;;;;;20.63;10.50;;;;;;;38.12;46.26;100804.66;4750299;30;20544;-70
2022/03/23 05:21:57;;;;;;;26.53;10.10;;;;;;;38.08;45.59;100819.13;4750608;30;20471;-72
2022/03/23 05:24:23;;;;;;;17.37;8.23;;;;;;;38.11;45.42;100821.97;4752635;30;20472;-70
2022/03/23 05:26:49;;;;;;;23.67;11.27;;;;;;;38.10;45.88;100820.38;4779834;29;20440;-71
2022/03/23 05:29:15;;;;;;;23.23;10.60;;;;;;;38.28;45.37;100817.81;4751229;30;20417;-71
2022/03/23 05:31:41;;;;;;;27.23;9.20;;;;;;;38.23;45.34;100812.50;4779611;29;20440;-71
2022/03/23 05:34:07;;;;;;;32.93;12.53;;;;;;;38.08;45.93;100819.91;4779718;29;20638;-71
2022/03/23 05:36:33;;;;;;;24.23;9.80;;;;;;;38.18;45.79;100832.38;4779645;29;20437;-71
2022/03/23 05:38:59;;;;;;;23.60;8.50;;;;;;;38.21;45.93;100829.06;4751119;30;20417;-72
2022/03/23 05:41:25;;;;;;;21.70;8.27;;;;;;;38.12;45.86;100834.44;4778790;29;20436;-72
2022/03/23 05:43:51;;;;;;;27.83;12.57;;;;;;;38.13;45.97;100838.75;4763539;30;20206;-73
2022/03/23 05:46:17;;;;;;;26.20;10.50;;;;;;;38.09;46.01;100840.47;4749722;30;20444;-73
2022/03/23 05:48:44;;;;;;;24.70;12.20;;;;;;;38.01;46.90;100843.13;4750246;30;20459;-74
2022/03/23 05:51:10;;;;;;;28.13;9.47;;;;;;;38.16;46.36;100840.81;4750128;30;20437;-72
2022/03/23 05:53:36;;;;;;;32.23;10.70;;;;;;;38.27;46.15;100851.47;4750264;30;20512;-74
2022/03/23 05:56:07;;;;;;;16.60;9.20;;;;;;;38.16;45.85;100853.56;4750101;30;20437;-72
2022/03/23 05:58:34;;;;;;;28.40;9.80;;;;;;;38.00;46.67;100860.44;4751324;30;20836;-75
2022/03/23 06:01:03;;;;;;;22.27;11.57;;;;;;;38.02;46.24;100869.88;4750281;30;20460;-73
2022/03/23 06:03:31;;;;;;;29.53;11.90;;;;;;;37.98;45.38;100873.50;4750551;30;20488;-73
2022/03/23 06:05:57;;;;;;;26.70;10.50;;;;;;;38.18;45.10;100873.03;4750844;30;20502;-73
2022/03/23 06:08:23;;;;;;;25.23;12.80;;;;;;;38.21;44.86;100877.84;4778523;29;20433;-73
2022/03/23 06:10:49;;;;;;;19.17;9.20;;;;;;;38.18;44.57;100879.25;4749507;30;20457;-73
2022/03/23 06:13:15;;;;;;;17.03;8.73;;;;;;;38.01;45.16;100884.53;4779108;30;20441;-73
2022/03/23 06:15:42;;;;;;;31.80;8.67;;;;;;;38.09;44.59;100889.22;4747316;30;20686;-74
2022/03/23 06:18:08;;;;;;;32.57;11.40;;;;;;;38.35;44.81;100888.63;4754638;30;20523;-73
2022/03/23 06:20:34;;;;;;;22.43;8.60;;;;;;;38.20;44.66;100891.69;4749349;30;20539;-72
2022/03/23 06:23:00;;;;;;;23.40;8.00;;;;;;;38.24;44.99;100892.66;4747831;30;20418;-73
2022/03/23 06:25:26;;;;;;;30.13;15.17;;;;;;;38.33;44.82;100901.69;4747164;30;20429;-74
2022/03/23 06:27:53;;;;;;;29.23;10.63;;;;;;;38.36;45.16;100901.88;4740015;30;20203;-72
2022/03/23 06:30:19;;;;;;;26.30;10.67;;;;;;;38.38;45.42;100910.50;4738681;30;21135;-72
2022/03/23 06:32:45;;;;;;;24.13;8.87;;;;;;;38.35;45.50;100919.25;4763686;30;20427;-73
2022/03/23 06:35:11;;;;;;;21.03;9.57;;;;;;;38.27;45.19;100917.28;4764140;30;20425;-72
2022/03/23 06:37:37;;;;;;;21.97;10.70;;;;;;;38.30;45.47;100923.97;4763299;30;20461;-72
2022/03/23 06:40:05;;;;;;;26.13;10.10;;;;;;;38.29;44.84;100928.59;4748834;30;20441;-72
2022/03/23 06:42:31;;;;;;;21.00;10.37;;;;;;;38.20;45.15;100929.63;4763488;30;20536;-72
2022/03/23 06:44:57;;;;;;;31.17;9.23;;;;;;;38.24;45.17;100938.72;4764120;30;20465;-74
2022/03/23 06:47:23;;;;;;;24.07;10.73;;;;;;;38.29;45.32;100936.72;4749074;30;20464;-73
2022/03/23 06:49:49;;;;;;;33.60;14.80;;;;;;;38.19;45.88;100934.25;4764025;30;20815;-72
2022/03/23 06:52:17;;;;;;;24.63;9.23;;;;;;;38.11;46.08;100934.94;4763297;30;20441;-72
2022/03/23 06:54:43;;;;;;;35.33;12.40;;;;;;;38.19;45.87;100928.81;4763838;30;20457;-75
2022/03/23 06:57:09;;;;;;;27.63;11.73;;;;;;;38.16;45.66;100937.56;4750815;30;20960;-72
2022/03/23 06:59:35;;;;;;;40.40;11.33;;;;;;;37.99;45.60;100930.06;4764463;30;20432;-74
2022/03/23 07:02:01;;;;;;;22.97;10.90;;;;;;;38.12;45.89;100926.53;4750838;30;20214;-78
2022/03/23 07:04:27;;;;;;;24.73;10.60;;;;;;;38.19;45.58;100928.81;4750773;30;20481;-73
2022/03/23 07:06:53;;;;;;;33.03;10.13;;;;;;;38.31;45.43;100923.69;4764507;30;20456;-73
2022/03/23 07:09:31;;;;;;;25.13;11.60;;;;;;;38.23;45.17;100918.16;4748483;30;20774;-71
2022/03/23 07:11:59;;;;;;;18.57;8.77;;;;;;;38.24;45.51;100919.75;4748827;30;20437;-73
2022/03/23 07:14:26;;;;;;;33.07;13.30;;;;;;;38.47;45.25;100934.16;4748060;30;20436;-74
2022/03/23 07:16:52;;;;;;;41.17;16.33;;;;;;;38.39;45.19;100938.41;4748301;30;20956;-72
2022/03/23 07:19:18;;;;;;;27.90;10.73;;;;;;;38.34;45.38;100935.81;4765592;30;20421;-71
2022/03/23 07:21:43;;;;;;;26.87;10.70;;;;;;;38.38;45.63;100936.81;4767198;30;20188;-72
2022/03/23 07:24:10;;;;;;;24.67;8.43;;;;;;;38.25;45.68;100943.06;4766938;30;20593;-73
2022/03/23 07:26:36;;;;;;;28.10;11.30;;;;;;;38.25;45.66;100940.34;4753606;30;20479;-72
2022/03/23 07:29:03;;;;;;;18.27;7.83;;;;;;;38.54;44.99;100948.06;4751374;30;20465;-72
2022/03/23 07:31:29;;;;;;;28.27;11.37;;;;;;;38.42;45.23;100954.84;4751921;30;20215;-72
2022/03/23 07:33:57;;;;;;;21.40;10.10;;;;;;;38.47;45.19;100964.75;4764303;30;20430;-72
2022/03/23 07:36:24;;;;;;;25.33;8.27;;;;;;;38.25;45.43;100962.81;4765853;30;20435;-72
2022/03/23 07:38:51;;;;;;;20.00;8.90;;;;;;;38.51;45.36;100968.47;4777143;30;20832;-72
2022/03/23 07:41:17;;;;;;;21.30;8.33;;;;;;;38.36;45.78;100975.03;4750348;30;20499;-71
2022/03/23 07:43:43;;;;;;;30.73;10.67;;;;;;;38.34;45.85;100985.38;4750832;30;20501;-71
2022/03/23 07:46:09;;;;;;;23.53;10.67;;;;;;;38.55;45.28;100995.75;4780636;29;20461;-72
2022/03/23 07:48:35;;;;;;;33.80;9.33;;;;;;;38.25;45.84;100992.63;4765643;30;20433;-72
2022/03/23 07:51:01;;;;;;;23.73;9.57;;;;;;;38.43;45.60;100994.41;4781182;29;20436;-71
2022/03/23 07:53:27;;;;;;;25.27;9.07;;;;;;;38.57;45.59;101007.09;4750878;30;20417;-73
2022/03/23 07:55:54;;;;;;;19.93;8.50;;;;;;;38.58;45.12;101004.06;4751796;30;20429;-70
2022/03/23 07:58:22;;;;;;;23.10;9.10;;;;;;;38.57;45.79;101015.22;4752271;30;20250;-71
2022/03/23 08:00:48;;;;;;;22.13;8.70;;;;;;;38.62;45.12;101017.84;4752054;30;20429;-72
2022/03/23 08:03:14;;;;;;;23.47;10.37;;;;;;;38.37;45.72;101016.50;4752354;30;20512;-70
2022/03/23 08:05:42;;;;;;;20.83;8.83;;;;;;;38.64;45.20;101019.13;4766165;30;20452;-71
2022/03/23 08:08:09;;;;;;;28.27;12.00;;;;;;;38.54;44.82;101023.97;4766377;30;20448;-70
2022/03/23 08:10:36;;;;;;;32.50;11.20;;;;;;;38.57;45.12;101021.44;4751618;30;20910;-73
2022/03/23 08:13:03;;;;;;;24.60;10.13;;;;;;;38.25;45.16;101024.34;4750409;30;20520;-73
2022/03/23 08:15:29;;;;;;;26.73;8.90;;;;;;;38.60;44.98;101023.53;4751536;30;20565;-72
2022/03/23 08:17:56;;;;;;;30.50;9.20;;;;;;;38.47;45.35;101037.94;4750298;30;20503;-73
2022/03/23 08:20:37;;;;;;;22.07;12.47;;;;;;;38.29;45.47;101041.59;4750456;30;20433;-73
2022/03/23 08:23:07;;;;;;;25.20;9.70;;;;;;;38.37;45.73;101046.31;4755782;30;20847;-73
2022/03/23 08:25:34;;;;;;;30.10;10.20;;;;;;;38.23;46.16;101040.88;4759089;30;20441;-71
2022/03/23 08:28:01;;;;;;;27.83;12.80;;;;;;;38.41;45.89;101041.88;4759222;30;20421;-73
2022/03/23 08:30:27;;;;;;;26.10;11.10;;;;;;;38.56;45.52;101041.53;4775053;29;20440;-74
2022/03/23 08:32:53;;;;;;;27.93;10.80;;;;;;;38.79;44.93;101055.13;4757535;30;20436;-73
2022/03/23 08:35:20;;;;;;;25.40;9.07;;;;;;;38.65;44.91;101057.88;4768095;30;20425;-73
2022/03/23 08:37:48;;;;;;;24.20;10.73;;;;;;;38.87;44.80;101065.25;4757737;30;20881;-71
2022/03/23 08:40:14;;;;;;;26.47;9.43;;;;;;;38.73;44.99;101065.28;4760841;30;20855;-71
2022/03/23 08:42:40;;;;;;;24.53;9.57;;;;;;;38.81;44.75;101069.19;4763936;30;20459;-72
2022/03/23 08:45:07;;;;;;;22.27;10.47;;;;;;;38.77;44.89;101068.19;4769004;30;20521;-72
2022/03/23 08:47:33;;;;;;;19.70;8.60;;;;;;;38.83;44.71;101078.63;4769190;30;20852;-73
2022/03/23 08:49:59;;;;;;;17.10;8.50;;;;;;;39.09;44.27;101086.13;4783924;29;20424;-73
2022/03/23 08:52:25;;;;;;;19.37;8.50;;;;;;;39.22;44.12;101088.00;4768937;30;20455;-71
2022/03/23 08:54:51;;;;;;;22.30;10.87;;;;;;;39.27;44.05;101073.53;4768948;30;21045;-71
2022/03/23 08:57:17;;;;;;;24.07;9.70;;;;;;;39.26;44.11;101074.63;4783886;29;20459;-73
2022/03/23 08:59:43;;;;;;;27.67;8.77;;;;;;;39.21;43.94;101083.69;4768760;30;20440;-72
2022/03/23 09:02:09;;;;;;;29.67;10.70;;;;;;;39.13;43.79;101085.22;4768578;30;20460;-71
2022/03/23 09:04:35;;;;;;;16.30;9.70;;;;;;;39.22;43.41;101074.44;4768427;30;20312;-71
2022/03/23 09:07:01;;;;;;;20.60;9.57;;;;;;;39.13;43.55;101085.22;4783533;29;20825;-72
2022/03/23 09:09:27;;;;;;;26.43;10.80;;;;;;;39.21;43.47;101076.34;4769971;30;20170;-73
2022/03/23 09:11:53;;;;;;;26.87;9.10;;;;;;;39.22;43.36;101088.81;4775503;29;20468;-71
2022/03/23 09:14:19;;;;;;;26.93;10.20;;;;;;;39.15;43.43;101080.28;4750782;30;20835;-71
2022/03/23 09:16:45;;;;;;;23.00;10.60;;;;;;;39.19;43.37;101085.94;4736157;30;20437;-73
2022/03/23 09:19:12;;;;;;;32.23;11.90;;;;;;;39.30;43.49;101081.06;4765446;30;20439;-72
2022/03/23 09:21:38;;;;;;;25.63;7.87;;;;;;;39.30;43.28;101087.28;4764576;30;20226;-71
2022/03/23 09:24:06;;;;;;;21.50;10.40;;;;;;;39.27;43.38;101089.81;4748836;30;20988;-73
2022/03/23 09:26:31;;;;;;;27.77;7.97;;;;;;;39.07;43.48;101089.16;4750088;30;20413;-73
2022/03/23 09:28:58;;;;;;;20.70;7.67;;;;;;;39.02;43.51;101091.19;4748877;30;20471;-79
2022/03/23 09:31:25;;;;;;;30.73;7.93;;;;;;;39.12;43.76;101091.75;4748902;30;20433;-73
2022/03/23 09:33:51;;;;;;;21.90;9.40;;;;;;;39.02;43.70;101088.50;4748835;30;20424;-72
2022/03/23 09:39:03;;;;;;;24.43;9.90;;;;;;;39.09;44.16;101088.84;4752004;30;20425;-71
2022/03/23 09:41:31;;;;;;;20.27;7.23;;;;;;;39.28;43.64;101089.47;4764538;30;20408;-72
2022/03/23 09:43:58;;;;;;;23.90;8.40;;;;;;;39.00;43.53;101085.28;4749887;30;20555;-72
2022/03/23 09:46:24;;;;;;;23.77;7.90;;;;;;;39.05;43.76;101085.97;4750300;30;20447;-71
2022/03/23 09:48:50;;;;;;;27.77;10.10;;;;;;;38.88;44.38;101073.09;4750385;30;20821;-71
2022/03/23 09:51:19;;;;;;;20.93;8.40;;;;;;;39.04;43.51;101087.09;4765058;30;20512;-70
2022/03/23 09:53:46;;;;;;;23.70;9.60;;;;;;;39.08;43.72;101076.41;4750387;30;20420;-72
2022/03/23 09:56:13;;;;;;;24.83;7.87;;;;;;;38.92;43.96;101079.50;4750270;30;20436;-72
2022/03/23 09:58:41;;;;;;;19.43;8.70;;;;;;;39.18;43.53;101078.91;4750173;30;20444;-72
2022/03/23 10:01:34;;;;;;;27.77;8.23;;;;;;;39.18;43.45;101077.00;4750145;30;20449;-68
2022/03/23 10:04:18;;;;;;;15.73;8.90;;;;;;;39.26;43.39;101077.34;4763573;30;20521;-67
2022/03/23 10:07:23;;;;;;;24.30;9.73;;;;;;;39.00;43.85;101072.53;4764799;30;20440;-70
2022/03/23 10:10:13;;;;;;;31.97;12.40;;;;;;;39.07;43.58;101067.47;4763561;30;20432;-67
2022/03/23 10:13:37;;;;;;;26.83;14.17;;;;;;;39.16;43.34;101062.13;4751126;30;20877;-69
2022/03/23 10:16:05;;;;;;;17.37;8.63;;;;;;;39.14;43.39;101053.47;4751108;30;20796;-67
2022/03/23 10:18:51;;;;;;;27.10;10.57;;;;;;;39.05;43.60;101052.63;4749450;30;20986;-70
2022/03/23 10:21:23;;;;;;;18.70;8.00;;;;;;;39.29;43.31;101055.00;4750306;30;20520;-70
2022/03/23 10:23:58;;;;;;;19.70;9.20;;;;;;;39.52;43.09;101056.56;4764623;30;20465;-68
2022/03/23 10:26:24;;;;;;;23.63;9.43;;;;;;;39.16;43.40;101054.78;4750063;30;20447;-67
2022/03/23 10:28:51;;;;;;;28.97;11.57;;;;;;;39.20;43.77;101066.63;4750018;30;20448;-68
2022/03/23 10:31:21;;;;;;;18.97;9.03;;;;;;;39.33;43.66;101059.50;4764665;30;20443;-69
2022/03/23 10:34:08;;;;;;;34.67;9.70;;;;;;;39.29;43.72;101053.13;4749923;30;20433;-69
2022/03/23 10:36:55;;;;;;;28.93;14.53;;;;;;;39.55;43.14;101064.09;4749420;30;20491;-69
2022/03/23 10:39:27;;;;;;;16.37;12.17;;;;;;;39.67;43.18;101050.75;4749735;30;20926;-71
2022/03/23 10:41:59;;;;;;;29.17;15.33;;;;;;;39.55;43.38;101053.25;4749882;30;20433;-70
2022/03/23 10:44:26;;;;;;;22.03;9.50;;;;;;;39.47;42.89;101043.94;4764369;30;20464;-70
2022/03/23 10:46:56;;;;;;;24.77;9.43;;;;;;;39.52;43.13;101053.06;4734984;30;20466;-70
2022/03/23 10:49:35;;;;;;;31.97;12.73;;;;;;;39.58;42.86;101041.75;4778339;30;20468;-69
2022/03/23 10:52:16;;;;;;;23.10;10.67;;;;;;;39.65;42.99;101038.59;4762265;30;20461;-68
2022/03/23 10:54:56;;;;;;;40.23;13.77;;;;;;;39.74;42.78;101039.44;4752426;30;20460;-69
2022/03/23 10:57:43;;;;;;;22.90;11.90;;;;;;;39.74;42.84;101034.81;4750912;30;20468;-68
2022/03/23 11:00:17;;;;;;;31.70;15.07;;;;;;;39.76;42.55;101039.91;4767197;30;20498;-68
2022/03/23 11:02:47;;;;;;;23.63;12.40;;;;;;;39.66;42.72;101041.03;4754071;30;20491;-68
2022/03/23 11:05:36;;;;;;;24.73;12.27;;;;;;;39.83;42.50;101034.81;4781957;29;20515;-70
2022/03/23 11:08:14;;;;;;;21.83;11.83;;;;;;;39.93;42.31;101041.88;4760361;30;20432;-72
2022/03/23 11:16:28;;;;;;;20.57;10.60;;;;;;;39.92;42.12;101026.72;4753925;30;20400;-70
2022/03/23 11:19:26;;;;;;;22.63;7.80;;;;;;;39.71;42.49;101023.75;4752749;30;20420;-70
2022/03/23 11:22:04;;;;;;;35.53;11.50;;;;;;;39.67;42.70;101020.91;4751580;30;20510;-69
2022/03/23 11:24:37;;;;;;;25.67;8.57;;;;;;;39.25;43.41;101011.41;4774612;30;20494;-70
2022/03/23 11:27:08;;;;;;;21.27;9.07;;;;;;;39.29;43.55;101008.88;4742959;30;20429;-71
2022/03/23 11:29:37;;;;;;;17.33;9.80;;;;;;;39.55;42.69;100996.22;4752439;30;20457;-70
2022/03/23 11:32:07;;;;;;;24.97;7.30;;;;;;;39.20;43.62;100989.84;4753822;30;20414;-70
2022/03/23 11:34:36;;;;;;;21.57;10.40;;;;;;;39.52;42.92;100998.75;4752354;30;20469;-70